createdAt,value
2023-01-05T00:01:51.844Z,5.92
2023-01-05T00:04:19.117Z,5.94
2023-01-05T00:06:46.385Z,5.95
2023-01-05T00:09:17.202Z,6.00
2023-01-05T00:12:03.325Z,6.02
2023-01-05T00:14:50.307Z,6.14
2023-01-05T00:17:41.674Z,6.14
2023-01-05T00:20:34.638Z,6.12
2023-01-05T00:23:02.222Z,6.25
2023-01-05T00:25:31.863Z,6.23
2023-01-05T00:27:59.287Z,6.20
2023-01-05T00:30:29.198Z,6.21
2023-01-05T00:32:56.593Z,6.10
2023-01-05T00:35:24.064Z,6.11
2023-01-05T00:37:51.926Z,6.11
2023-01-05T00:40:21.241Z,6.08
2023-01-05T00:42:48.830Z,6.04
2023-01-05T00:45:18.951Z,6.03
2023-01-05T00:47:46.290Z,5.99
2023-01-05T00:50:16.535Z,6.00
2023-01-05T00:52:44.851Z,5.97
2023-01-05T00:55:12.376Z,6.00
2023-01-05T00:57:39.799Z,6.07
2023-01-05T01:00:09.474Z,6.11
2023-01-05T01:02:36.800Z,6.14
2023-01-05T01:05:05.272Z,6.13
2023-01-05T01:07:32.511Z,6.14
2023-01-05T01:09:59.391Z,6.14
2023-01-05T01:12:26.607Z,6.08
2023-01-05T01:14:53.524Z,6.13
2023-01-05T01:17:20.974Z,6.15
2023-01-05T01:19:47.993Z,6.14
2023-01-05T01:22:15.200Z,6.27
2023-01-05T01:24:42.419Z,6.26
2023-01-05T01:27:09.767Z,6.20
2023-01-05T01:29:36.745Z,6.26
2023-01-05T01:32:04.031Z,6.22
2023-01-05T01:34:30.997Z,6.20
2023-01-05T01:36:59.141Z,6.26
2023-01-05T01:39:26.209Z,6.30
2023-01-05T01:41:53.395Z,6.31
2023-01-05T01:45:05.367Z,6.37
2023-01-05T01:47:42.139Z,6.40
2023-01-05T01:50:13.023Z,6.44
2023-01-05T01:52:41.587Z,6.50
2023-01-05T01:55:09.249Z,6.51
2023-01-05T01:57:37.185Z,6.56
2023-01-05T02:00:07.458Z,6.55
2023-01-05T02:02:34.911Z,6.56
2023-01-05T02:05:07.159Z,6.60
2023-01-05T02:07:37.785Z,6.64
2023-01-05T02:10:05.414Z,6.63
2023-01-05T02:13:03.481Z,6.60
2023-01-05T02:16:16.689Z,6.64
2023-01-05T02:19:02.284Z,6.62
2023-01-05T02:22:13.432Z,6.42
2023-01-05T02:24:55.515Z,6.29
2023-01-05T02:27:49.510Z,6.19
2023-01-05T02:30:50.967Z,6.08
2023-01-05T02:33:20.659Z,6.05
2023-01-05T02:35:59.960Z,5.96
2023-01-05T02:38:39.082Z,5.93
2023-01-05T02:41:33.175Z,5.91
2023-01-05T02:44:01.424Z,5.86
2023-01-05T02:46:29.692Z,5.88
2023-01-05T02:48:59.315Z,5.86
2023-01-05T02:51:41.260Z,5.90
2023-01-05T02:54:19.702Z,5.96
2023-01-05T02:56:55.994Z,6.02
2023-01-05T02:59:38.332Z,6.06
2023-01-05T03:02:11.572Z,6.09
2023-01-05T03:04:55.388Z,6.12
2023-01-05T03:07:27.809Z,6.17
2023-01-05T03:09:54.929Z,6.23
2023-01-05T03:12:48.029Z,6.22
2023-01-05T03:15:21.073Z,6.20
2023-01-05T03:17:55.368Z,6.22
2023-01-05T03:20:25.238Z,6.28
2023-01-05T03:23:12.284Z,6.32
2023-01-05T03:25:58.966Z,6.34
2023-01-05T03:29:00.715Z,6.33
2023-01-05T03:32:01.700Z,6.35
2023-01-05T03:35:03.816Z,6.40
2023-01-05T03:37:43.261Z,6.47
2023-01-05T03:40:29.103Z,6.54
2023-01-05T03:42:56.511Z,6.55
2023-01-05T03:45:34.471Z,6.54
2023-01-05T03:48:01.308Z,6.57
2023-01-05T03:50:28.928Z,6.53
2023-01-05T03:52:55.878Z,6.55
2023-01-05T03:55:23.220Z,6.57
2023-01-05T03:57:50.181Z,6.63
2023-01-05T04:00:17.686Z,6.70
2023-01-05T04:02:44.789Z,6.66
2023-01-05T04:05:12.577Z,6.65
2023-01-05T04:07:39.425Z,6.66
2023-01-05T04:10:07.089Z,6.49
2023-01-05T04:12:34.066Z,6.50
2023-01-05T04:15:01.319Z,6.51
2023-01-05T04:17:28.245Z,6.60
2023-01-05T04:19:55.403Z,6.57
2023-01-05T04:22:26.977Z,6.51
2023-01-05T04:24:54.608Z,6.51
2023-01-05T04:27:21.485Z,6.58
2023-01-05T04:29:48.698Z,6.49
2023-01-05T04:32:15.682Z,6.38
2023-01-05T04:34:42.926Z,6.35
2023-01-05T04:37:09.834Z,6.25
2023-01-05T04:39:37.036Z,6.18
2023-01-05T04:42:03.997Z,6.14
2023-01-05T04:44:31.260Z,6.11
2023-01-05T04:46:58.335Z,6.07
2023-01-05T04:49:25.541Z,6.06
2023-01-05T04:51:52.486Z,6.01
2023-01-05T04:54:19.693Z,5.97
2023-01-05T04:56:46.658Z,6.01
2023-01-05T04:59:13.891Z,6.00
2023-01-05T05:01:40.836Z,6.05
2023-01-05T05:04:08.069Z,6.08
2023-01-05T05:06:35.003Z,6.11
2023-01-05T05:09:02.284Z,6.10
2023-01-05T05:11:29.239Z,6.15
2023-01-05T05:13:56.491Z,6.16
2023-01-05T05:16:23.518Z,6.17
2023-01-05T05:18:50.875Z,6.22
2023-01-05T05:21:17.825Z,6.25
2023-01-05T05:23:44.931Z,6.20
2023-01-05T05:26:11.957Z,6.23
2023-01-05T05:28:39.121Z,6.21
2023-01-05T05:31:06.045Z,6.22
2023-01-05T05:33:33.383Z,6.17
2023-01-05T05:36:00.352Z,6.14
2023-01-05T05:38:27.579Z,6.07
2023-01-05T05:40:54.582Z,6.03
2023-01-05T05:43:21.746Z,6.07
2023-01-05T05:45:50.933Z,6.08
2023-01-05T05:48:18.990Z,6.13
2023-01-05T05:50:46.283Z,6.13
2023-01-05T05:53:13.714Z,6.13
2023-01-05T05:55:40.648Z,6.09
2023-01-05T05:58:07.802Z,6.13
2023-01-05T06:00:34.870Z,6.14
2023-01-05T06:03:02.110Z,6.18
2023-01-05T06:05:29.084Z,6.21
2023-01-05T06:07:56.340Z,6.18
2023-01-05T06:10:23.485Z,6.26
2023-01-05T06:12:53.542Z,6.31
2023-01-05T06:15:21.478Z,6.34
2023-01-05T06:17:48.840Z,6.31
2023-01-05T06:20:16.774Z,6.25
2023-01-05T06:22:44.451Z,6.15
2023-01-05T06:25:12.101Z,6.08
2023-01-05T06:27:39.239Z,6.03
2023-01-05T06:30:06.771Z,5.99
2023-01-05T06:32:34.039Z,5.99
2023-01-05T06:35:00.969Z,6.05
2023-01-05T06:37:28.152Z,6.01
2023-01-05T06:39:56.368Z,6.04
2023-01-05T06:42:24.019Z,6.02
2023-01-05T06:44:51.079Z,6.00
2023-01-05T06:47:19.094Z,5.97
2023-01-05T06:49:46.430Z,5.94
2023-01-05T06:52:16.674Z,6.01
2023-01-05T06:54:44.528Z,5.97
2023-01-05T06:57:11.833Z,5.93
2023-01-05T06:59:38.979Z,5.97
2023-01-05T07:02:09.333Z,6.02
2023-01-05T07:04:36.297Z,6.00
2023-01-05T07:07:03.458Z,5.99
2023-01-05T07:09:30.341Z,5.97
2023-01-05T07:11:57.541Z,5.96
2023-01-05T07:14:24.479Z,5.94
2023-01-05T07:16:51.770Z,5.97
2023-01-05T07:19:18.730Z,5.98
2023-01-05T07:21:45.948Z,5.97
2023-01-05T07:24:13.015Z,5.99
2023-01-05T07:26:40.170Z,6.03
2023-01-05T07:29:07.115Z,6.04
2023-01-05T07:31:34.728Z,6.04
2023-01-05T07:34:01.700Z,6.05
2023-01-05T07:36:28.902Z,6.09
2023-01-05T07:38:59.327Z,6.15
2023-01-05T07:41:26.771Z,6.24
2023-01-05T07:43:53.689Z,6.30
2023-01-05T07:46:20.996Z,6.31
2023-01-05T07:48:47.960Z,6.30
2023-01-05T07:51:15.668Z,6.22
2023-01-05T07:53:44.659Z,6.15
2023-01-05T07:56:12.933Z,6.09
2023-01-05T07:58:40.750Z,6.10
2023-01-05T08:01:11.311Z,6.03
2023-01-05T08:03:39.271Z,5.98
2023-01-05T08:06:12.029Z,5.95
2023-01-05T08:08:39.763Z,5.96
2023-01-05T08:11:09.055Z,5.94
2023-01-05T08:13:55.448Z,5.93
2023-01-05T08:16:23.278Z,5.93
2023-01-05T08:18:50.245Z,5.92
2023-01-05T08:21:18.836Z,5.95
2023-01-05T08:23:50.568Z,5.95
2023-01-05T08:26:20.435Z,5.97
2023-01-05T08:28:47.510Z,6.02
2023-01-05T08:31:16.550Z,6.08
2023-01-05T08:33:43.685Z,6.12
2023-01-05T08:36:16.114Z,6.21
2023-01-05T08:38:49.385Z,6.27
2023-01-05T08:41:21.867Z,6.33
2023-01-05T08:43:54.049Z,6.39
2023-01-05T08:46:23.747Z,6.45
2023-01-05T08:48:52.393Z,6.53
2023-01-05T08:51:19.767Z,6.64
2023-01-05T08:53:47.413Z,6.67
2023-01-05T08:56:14.841Z,6.75
2023-01-05T08:58:42.921Z,6.77
2023-01-05T09:01:12.623Z,6.83
2023-01-05T09:03:40.198Z,6.85
2023-01-05T09:06:11.926Z,6.85
2023-01-05T09:08:40.780Z,6.88
2023-01-05T09:11:10.565Z,6.85
2023-01-05T09:13:40.062Z,6.83
2023-01-05T09:16:10.101Z,6.84
2023-01-05T09:18:38.866Z,6.84
2023-01-05T09:21:07.080Z,6.77
2023-01-05T09:23:34.496Z,6.77
2023-01-05T09:26:05.064Z,6.76
2023-01-05T09:28:32.316Z,6.76
2023-01-05T09:30:59.603Z,6.76
2023-01-05T09:33:26.519Z,6.75
2023-01-05T09:35:57.233Z,6.75
2023-01-05T09:38:25.204Z,6.73
2023-01-05T09:40:55.898Z,6.75
2023-01-05T09:43:31.720Z,6.84
2023-01-05T09:45:59.639Z,6.88
2023-01-05T09:48:27.553Z,6.97
2023-01-05T09:50:54.776Z,7.03
2023-01-05T09:53:29.415Z,7.11
2023-01-05T09:55:57.832Z,7.27
2023-01-05T09:58:30.349Z,7.57
2023-01-05T10:01:15.057Z,7.96
2023-01-05T10:04:04.274Z,8.18
2023-01-05T10:06:42.379Z,8.23
2023-01-05T10:09:17.060Z,8.11
2023-01-05T10:12:05.748Z,8.01
2023-01-05T10:14:39.536Z,7.91
2023-01-05T10:20:12.491Z,7.78
2023-01-05T10:23:08.650Z,7.77
2023-01-05T10:25:54.922Z,7.79
2023-01-05T10:28:32.015Z,7.82
2023-01-05T10:31:01.627Z,7.81
2023-01-05T10:33:53.908Z,7.81
2023-01-05T10:37:07.350Z,7.82
2023-01-05T10:39:57.032Z,7.81
2023-01-05T10:42:34.849Z,7.72
2023-01-05T10:45:06.790Z,7.71
2023-01-05T10:47:37.610Z,7.75
2023-01-05T10:50:25.145Z,7.70
2023-01-05T10:52:54.331Z,7.70
2023-01-05T10:55:22.982Z,7.71
2023-01-05T10:57:50.031Z,7.68
2023-01-05T11:00:19.930Z,7.66
2023-01-05T11:02:51.205Z,7.63
2023-01-05T11:05:27.349Z,7.65
2023-01-05T11:07:58.753Z,7.64
2023-01-05T11:10:35.634Z,7.67
2023-01-05T11:13:04.614Z,7.94
2023-01-05T11:15:33.184Z,8.21
2023-01-05T11:18:00.439Z,8.72
2023-01-05T11:20:29.409Z,9.58
2023-01-05T11:22:56.298Z,10.07
2023-01-05T11:25:31.890Z,10.49
2023-01-05T11:28:17.276Z,10.12
2023-01-05T11:31:03.419Z,9.70
2023-01-05T11:33:34.889Z,9.48
2023-01-05T11:36:04.190Z,9.35
2023-01-05T11:38:31.882Z,9.25
2023-01-05T11:41:00.832Z,9.14
2023-01-05T11:43:32.571Z,9.04
2023-01-05T11:46:03.718Z,8.96
2023-01-05T11:48:34.697Z,8.87
2023-01-05T11:51:02.955Z,8.88
2023-01-05T11:53:32.978Z,8.89
2023-01-05T11:56:01.552Z,8.81
2023-01-05T11:58:43.305Z,8.65
2023-01-05T12:01:29.251Z,8.55
2023-01-05T12:04:04.266Z,8.51
2023-01-05T12:07:09.136Z,8.53
2023-01-05T12:10:05.214Z,8.55
2023-01-05T12:12:32.397Z,8.50
2023-01-05T12:15:36.694Z,8.51
2023-01-05T12:18:21.881Z,8.56
2023-01-05T12:21:00.128Z,8.57
2023-01-05T12:23:42.422Z,8.55
2023-01-05T12:26:18.113Z,8.60
2023-01-05T12:30:10.814Z,8.65
2023-01-05T12:35:24.909Z,8.85
2023-01-05T12:38:10.424Z,8.82
2023-01-05T12:40:49.264Z,8.86
2023-01-05T12:43:48.226Z,8.89
2023-01-05T12:46:15.462Z,8.93
2023-01-05T12:48:51.714Z,8.98
2023-01-05T12:51:24.784Z,9.01
2023-01-05T12:54:05.415Z,9.01
2023-01-05T12:56:47.949Z,8.92
2023-01-05T12:59:43.857Z,8.81
2023-01-05T13:02:35.534Z,8.78
2023-01-05T13:05:33.796Z,8.76
2023-01-05T13:08:05.371Z,8.75
2023-01-05T13:11:09.405Z,8.66
2023-01-05T13:13:41.719Z,8.55
2023-01-05T13:16:08.895Z,8.54
2023-01-05T13:18:41.175Z,8.52
2023-01-05T13:21:14.703Z,8.55
2023-01-05T13:23:47.468Z,8.49
2023-01-05T13:26:17.536Z,8.37
2023-01-05T13:28:55.989Z,8.25
2023-01-05T13:32:04.340Z,8.11
2023-01-05T13:34:54.962Z,8.01
2023-01-05T13:37:45.983Z,7.93
2023-01-05T13:40:31.843Z,7.81
2023-01-05T13:43:26.539Z,7.77
2023-01-05T13:46:21.670Z,7.65
2023-01-05T13:49:15.594Z,7.46
2023-01-05T13:51:56.839Z,7.39
2023-01-05T13:54:26.936Z,7.36
2023-01-05T13:56:54.472Z,7.23
2023-01-05T13:59:44.425Z,7.21
2023-01-05T14:02:34.569Z,7.14
2023-01-05T14:05:01.945Z,7.03
2023-01-05T14:07:29.474Z,6.96
2023-01-05T14:09:57.762Z,6.86
2023-01-05T14:12:45.059Z,6.77
2023-01-05T14:15:29.957Z,6.70
2023-01-05T14:17:58.445Z,6.68
2023-01-05T14:20:34.285Z,6.64
2023-01-05T14:23:05.305Z,6.60
2023-01-05T14:25:38.290Z,6.60
2023-01-05T14:28:19.705Z,6.52
2023-01-05T14:30:48.895Z,6.43
2023-01-05T14:33:19.340Z,6.37
2023-01-05T14:35:46.722Z,6.29
2023-01-05T14:38:19.795Z,6.24
2023-01-05T14:40:51.288Z,6.23
2023-01-05T14:43:21.689Z,6.15
2023-01-05T14:46:00.285Z,6.10
2023-01-05T14:48:35.119Z,6.02
2023-01-05T14:51:20.649Z,5.99
2023-01-05T14:53:52.711Z,5.93
2023-01-05T14:56:42.813Z,5.95
2023-01-05T14:59:31.137Z,5.96
2023-01-05T15:04:44.398Z,6.03
2023-01-05T15:07:32.948Z,6.07
2023-01-05T15:10:14.960Z,6.09
2023-01-05T15:13:03.172Z,6.13
2023-01-05T15:15:55.687Z,6.19
2023-01-05T15:18:53.008Z,6.26
2023-01-05T15:21:31.799Z,6.29
2023-01-05T15:24:27.304Z,6.27
2023-01-05T15:27:13.149Z,6.29
2023-01-05T15:30:17.480Z,6.32
2023-01-05T15:32:46.070Z,6.30
2023-01-05T15:35:17.827Z,6.31
2023-01-05T15:37:48.237Z,6.30
2023-01-05T15:40:21.403Z,6.34
2023-01-05T15:42:52.739Z,6.39
2023-01-05T15:45:32.236Z,6.45
2023-01-05T15:48:09.422Z,6.53
2023-01-05T15:50:58.507Z,6.52
2023-01-05T15:53:28.702Z,6.53
2023-01-05T15:55:56.823Z,6.53
2023-01-05T15:58:25.887Z,6.55
2023-01-05T16:01:10.595Z,6.57
2023-01-05T16:03:40.326Z,6.62
2023-01-05T16:06:14.299Z,6.62
2023-01-05T16:08:44.895Z,6.69
2023-01-05T16:11:15.936Z,6.75
2023-01-05T16:13:50.268Z,6.80
2023-01-05T16:16:51.934Z,6.83
2023-01-05T16:19:39.519Z,6.84
2023-01-05T16:22:18.870Z,6.78
2023-01-05T16:24:55.260Z,6.78
2023-01-05T16:27:22.499Z,6.80
2023-01-05T16:29:49.881Z,6.80
2023-01-05T16:32:38.834Z,6.77
2023-01-05T16:35:23.165Z,6.70
2023-01-05T16:38:07.328Z,6.63
2023-01-05T16:40:55.249Z,6.61
2023-01-05T16:43:28.477Z,6.59
2023-01-05T16:45:58.440Z,6.59
2023-01-05T16:48:40.535Z,6.55
2023-01-05T16:51:13.695Z,6.54
2023-01-05T16:53:45.974Z,6.54
2023-01-05T16:56:21.545Z,6.52
2023-01-05T16:58:49.431Z,6.48
2023-01-05T17:01:34.105Z,6.50
2023-01-05T17:04:11.191Z,6.47
2023-01-05T17:06:39.299Z,6.43
2023-01-05T17:09:25.666Z,6.41
2023-01-05T17:11:53.493Z,6.43
2023-01-05T17:14:21.740Z,6.40
2023-01-05T17:16:49.206Z,6.41
2023-01-05T17:19:18.840Z,6.41
2023-01-05T17:21:54.547Z,6.45
2023-01-05T17:24:21.812Z,6.39
2023-01-05T17:26:49.197Z,6.42
2023-01-05T17:29:25.769Z,6.37
2023-01-05T17:31:52.987Z,6.43
2023-01-05T17:34:20.616Z,6.46
2023-01-05T17:36:50.098Z,6.50
2023-01-05T17:39:18.676Z,6.48
2023-01-05T17:41:46.239Z,6.48
2023-01-05T17:44:14.261Z,6.47
2023-01-05T17:46:45.463Z,6.47
2023-01-05T17:49:17.764Z,6.42
2023-01-05T17:51:45.121Z,6.39
2023-01-05T17:54:12.533Z,6.32
2023-01-05T17:56:39.848Z,6.23
2023-01-05T17:59:06.851Z,6.20
2023-01-05T18:01:34.369Z,6.19
2023-01-05T18:04:01.918Z,6.15
2023-01-05T18:06:29.156Z,6.13
2023-01-05T18:08:56.126Z,6.09
2023-01-05T18:11:23.801Z,6.10
2023-01-05T18:13:50.810Z,6.09
2023-01-05T18:16:18.107Z,6.08
2023-01-05T18:18:45.313Z,6.06
2023-01-05T18:21:12.236Z,6.08
2023-01-05T18:23:39.423Z,6.09
2023-01-05T18:26:08.351Z,6.09
2023-01-05T18:28:36.095Z,6.11
2023-01-05T18:31:10.593Z,6.14
2023-01-05T18:33:37.812Z,6.16
2023-01-05T18:38:39.764Z,6.14
2023-01-05T18:41:07.397Z,6.11
2023-01-05T18:43:34.927Z,6.11
2023-01-05T18:46:02.794Z,6.15
2023-01-05T18:48:30.292Z,6.16
2023-01-05T18:50:57.380Z,6.15
2023-01-05T18:53:25.596Z,6.15
2023-01-05T18:55:53.215Z,6.14
2023-01-05T18:58:20.418Z,6.18
2023-01-05T19:00:47.381Z,6.14
2023-01-05T19:03:14.749Z,6.13
2023-01-05T19:05:44.057Z,6.10
2023-01-05T19:08:13.448Z,6.13
2023-01-05T19:10:40.798Z,6.13
2023-01-05T19:13:08.555Z,6.10
2023-01-05T19:15:37.302Z,6.09
2023-01-05T19:18:05.281Z,6.12
2023-01-05T19:20:32.340Z,6.16
2023-01-05T19:23:00.679Z,6.11
2023-01-05T19:25:28.369Z,6.09
2023-01-05T19:27:55.648Z,6.10
2023-01-05T19:30:23.689Z,6.07
2023-01-05T19:32:50.949Z,6.04
2023-01-05T19:35:18.253Z,6.11
2023-01-05T19:37:45.425Z,6.08
2023-01-05T19:40:12.934Z,6.10
2023-01-05T19:42:40.159Z,6.09
2023-01-05T19:45:09.631Z,6.11
2023-01-05T19:47:41.519Z,6.10
2023-01-05T19:50:10.145Z,6.09
2023-01-05T19:52:38.271Z,6.04
2023-01-05T19:55:06.076Z,6.09
2023-01-05T19:57:33.378Z,6.06
2023-01-05T20:00:00.325Z,6.10
2023-01-05T20:02:27.569Z,6.09
2023-01-05T20:04:54.526Z,6.02
2023-01-05T20:07:22.375Z,5.97
2023-01-05T20:09:50.913Z,5.92
2023-01-05T20:12:18.463Z,5.92
2023-01-05T20:14:45.457Z,5.94
2023-01-05T20:17:13.437Z,5.93
2023-01-05T20:19:41.190Z,5.95
2023-01-05T20:22:14.776Z,5.93
2023-01-05T20:24:42.869Z,5.94
2023-01-05T20:27:13.227Z,5.93
2023-01-05T20:29:40.825Z,5.90
2023-01-05T20:32:14.814Z,5.85
2023-01-05T20:34:44.594Z,5.87
2023-01-05T20:37:12.368Z,5.86
2023-01-05T20:39:40.993Z,5.84
2023-01-05T20:42:10.709Z,5.88
2023-01-05T20:44:39.761Z,5.84
2023-01-05T20:47:07.399Z,5.82
2023-01-05T20:49:35.764Z,5.78
2023-01-05T20:52:03.579Z,5.72
2023-01-05T20:54:30.505Z,5.69
2023-01-05T20:56:57.760Z,5.66
2023-01-05T20:59:27.637Z,5.66
2023-01-05T21:01:56.253Z,5.65
2023-01-05T21:04:25.123Z,5.61
2023-01-05T21:06:54.505Z,5.59
2023-01-05T21:09:25.241Z,5.58
2023-01-05T21:11:52.446Z,5.52
2023-01-05T21:14:20.105Z,5.51
2023-01-05T21:16:50.259Z,5.51
2023-01-05T21:19:21.006Z,5.47
2023-01-05T21:21:52.769Z,5.45
2023-01-05T21:24:19.859Z,5.42
2023-01-05T21:26:47.238Z,5.38
2023-01-05T21:29:16.239Z,5.36
2023-01-05T21:31:43.866Z,5.31
2023-01-05T21:34:11.850Z,5.29
2023-01-05T21:36:41.786Z,5.24
2023-01-05T21:39:11.453Z,5.27
2023-01-05T21:41:58.384Z,5.24
2023-01-05T21:44:25.688Z,5.17
2023-01-05T21:46:52.945Z,5.17
2023-01-05T21:49:20.610Z,5.17
2023-01-05T21:52:06.325Z,5.14
2023-01-05T21:54:52.768Z,5.07
2023-01-05T21:57:19.949Z,5.07
2023-01-05T21:59:47.079Z,5.09
2023-01-05T22:02:15.401Z,4.99
2023-01-05T22:04:43.318Z,4.95
2023-01-05T22:07:10.822Z,4.88
2023-01-05T22:09:38.397Z,4.88
2023-01-05T22:12:09.255Z,4.81
2023-01-05T22:14:37.613Z,4.77
2023-01-05T22:17:06.744Z,4.77
2023-01-05T22:19:34.054Z,4.74
2023-01-05T22:22:01.259Z,4.71
2023-01-05T22:24:28.173Z,4.68
2023-01-05T22:26:55.404Z,4.68
2023-01-05T22:29:22.476Z,4.63
2023-01-05T22:31:51.043Z,4.64
2023-01-05T22:34:18.342Z,4.61
2023-01-05T22:36:45.758Z,4.55
2023-01-05T22:39:12.829Z,4.56
2023-01-05T22:41:40.046Z,4.56
2023-01-05T22:44:07.569Z,4.53
2023-01-05T22:46:35.053Z,4.54
2023-01-05T22:49:02.057Z,4.53
2023-01-05T22:51:32.456Z,4.54
2023-01-05T22:54:00.543Z,4.52
2023-01-05T22:56:31.923Z,4.46
2023-01-05T22:58:59.276Z,4.47
2023-01-05T23:01:35.219Z,4.44
2023-01-05T23:04:05.050Z,4.43
2023-01-05T23:06:33.236Z,4.46
2023-01-05T23:09:01.081Z,4.43
2023-01-05T23:11:34.590Z,4.44
2023-01-05T23:14:03.488Z,4.48
2023-01-05T23:16:31.006Z,4.40
2023-01-05T23:18:57.984Z,4.41
2023-01-05T23:21:26.810Z,4.38
2023-01-05T23:23:57.129Z,4.40
2023-01-05T23:26:26.787Z,4.38
2023-01-05T23:28:53.811Z,4.37
2023-01-05T23:31:21.603Z,4.34
2023-01-05T23:33:49.435Z,4.32
2023-01-05T23:36:18.260Z,4.28
2023-01-05T23:38:45.719Z,4.31
2023-01-05T23:41:14.760Z,4.30
2023-01-05T23:43:45.138Z,4.32
2023-01-05T23:46:20.692Z,4.33
2023-01-05T23:48:49.249Z,4.32
2023-01-05T23:51:17.419Z,4.35
2023-01-05T23:53:46.940Z,4.29
2023-01-05T23:56:15.625Z,4.25
2023-01-05T23:58:43.708Z,4.24
